Terminal Aerodrome Forecast
Issued by NWS

Home | Current Version | Previous Version | Text Only | Print | Product List | Glossary On
Versions: 1 2 3 4 5 6 7 8 9 10 11 12 13 14 15 16 17 18 19 20 21 22 23 24 25 26 27 28 29 30 31 32 33 34 35 36
000
FTAK31 PAFA 021739 CCB
TAFATA
TAF COR
PATA 021739Z 0218/0318 31008KT P6SM VCSH FEW035 SCT080
     FM022000 25012KT P6SM FEW035 SCT090
     FM031000 27007KT 6SM BR OVC025
     FM031400 28008KT P6SM FEW025 OVC050=

USA.gov is the U.S. government's official web portal to all federal, state and local government web resources and services.